Time;durP1;ratioP1;P1;durP2;ratioP2;P2;SDS_P1;SDS_P2;PMS_P1;PMS_P2;Temp;Humidity;BMP_temperature;BMP_pressure;BME280_temperature;BME280_humidity;BME280_pressure;Samples;Min_cycle;Max_cycle;Signal;HPM_P1;HPM_P2
2022/03/12 00:02:08;;;;;;;23.35;12.00;;;;;;;9.99;46.14;101255.78;5030214;28;20120;-53
2022/03/12 00:04:33;;;;;;;27.38;12.70;;;;;;;10.01;44.88;101251.13;5028919;28;20508;-52
2022/03/12 00:06:59;;;;;;;32.13;12.52;;;;;;;10.01;44.99;101256.47;5045593;28;20477;-53
2022/03/12 00:09:24;;;;;;;22.48;12.85;;;;;;;10.04;44.62;101253.50;5039751;28;20203;-52
2022/03/12 00:11:55;;;;;;;25.67;12.27;;;;;;;10.02;44.96;101255.50;5030170;28;20021;-53
2022/03/12 00:14:21;;;;;;;25.13;12.20;;;;;;;10.03;44.97;101257.16;5031893;28;20032;-53
2022/03/12 00:16:49;;;;;;;25.35;12.95;;;;;;;10.00;44.50;101252.97;5048851;28;20025;-54
2022/03/12 00:19:14;;;;;;;25.27;12.82;;;;;;;10.01;44.98;101256.47;5051504;28;20047;-52
2022/03/12 00:21:42;;;;;;;23.42;12.23;;;;;;;10.00;44.97;101255.63;5039417;28;20056;-52
2022/03/12 00:24:12;;;;;;;26.20;13.30;;;;;;;10.00;44.66;101266.31;5049441;28;20020;-52
2022/03/12 00:26:43;;;;;;;28.50;13.10;;;;;;;10.00;45.17;101265.47;5053570;28;20140;-53
2022/03/12 00:29:14;;;;;;;27.85;13.88;;;;;;;9.97;45.25;101271.94;5041722;28;20028;-53
2022/03/12 00:31:41;;;;;;;26.48;14.50;;;;;;;9.96;45.40;101253.41;5052077;28;20491;-54
2022/03/12 00:34:06;;;;;;;25.10;12.85;;;;;;;9.94;45.38;101274.88;5036499;28;20032;-52
2022/03/12 00:36:31;;;;;;;25.67;12.32;;;;;;;9.94;46.32;101274.06;5041484;28;20055;-52
2022/03/12 00:38:56;;;;;;;22.98;13.10;;;;;;;9.94;46.07;101272.22;5040352;28;20037;-53
2022/03/12 00:41:22;;;;;;;27.38;13.27;;;;;;;9.90;45.55;101273.50;5026330;28;20039;-52
2022/03/12 00:43:47;;;;;;;26.40;13.20;;;;;;;9.89;46.26;101272.69;5041441;28;20032;-52
2022/03/12 00:46:13;;;;;;;23.48;12.90;;;;;;;9.88;46.67;101281.66;5035340;28;20025;-52
2022/03/12 00:48:39;;;;;;;25.73;13.27;;;;;;;9.88;46.46;101278.16;5046925;28;20436;-52
2022/03/12 00:51:06;;;;;;;27.65;12.82;;;;;;;9.85;46.94;101275.78;5052268;28;20501;-53
2022/03/12 00:53:32;;;;;;;25.67;12.48;;;;;;;9.86;46.78;101277.44;5040333;28;20032;-51
2022/03/12 00:55:57;;;;;;;33.75;12.70;;;;;;;9.85;46.82;101286.44;5041209;28;20620;-51
2022/03/12 00:58:23;;;;;;;25.50;13.55;;;;;;;9.85;47.75;101279.28;5045848;28;20116;-54
2022/03/12 01:00:49;;;;;;;30.65;13.20;;;;;;;9.82;47.84;101284.06;5034699;28;20094;-51
2022/03/12 01:03:14;;;;;;;22.95;12.40;;;;;;;9.79;48.27;101285.22;5048387;28;20025;-53
2022/03/12 01:05:49;;;;;;;29.67;12.77;;;;;;;9.78;48.28;101293.34;5049493;28;20049;-52
2022/03/12 01:08:15;;;;;;;28.00;11.93;;;;;;;9.75;48.78;101285.63;5038242;28;20039;-51
2022/03/12 01:10:41;;;;;;;28.85;13.63;;;;;;;9.74;48.32;101294.59;5042522;28;20128;-52
2022/03/12 01:13:07;;;;;;;25.83;13.63;;;;;;;9.71;48.91;101295.75;5040168;28;20047;-53
2022/03/12 01:15:34;;;;;;;22.15;12.48;;;;;;;9.71;50.37;101290.41;5033878;28;20109;-53
2022/03/12 01:18:00;;;;;;;29.70;13.45;;;;;;;9.71;49.34;101293.91;5035203;28;20083;-50
2022/03/12 01:20:26;;;;;;;23.98;13.32;;;;;;;9.73;49.92;101298.28;5035389;28;20032;-52
2022/03/12 01:22:52;;;;;;;24.70;12.68;;;;;;;9.70;51.05;101286.88;5037995;28;20545;-52
2022/03/12 01:25:17;;;;;;;26.35;12.57;;;;;;;9.73;50.57;101290.28;5053094;28;20024;-51
2022/03/12 01:27:43;;;;;;;28.42;13.32;;;;;;;9.72;51.44;101294.75;5036895;28;20392;-51
2022/03/12 01:30:09;;;;;;;27.20;13.65;;;;;;;9.72;53.46;101292.09;5048493;28;20611;-49
2022/03/12 01:32:35;;;;;;;23.23;12.73;;;;;;;9.68;55.31;101296.03;5055278;28;20059;-52
2022/03/12 01:35:00;;;;;;;28.67;13.50;;;;;;;9.67;56.50;101307.69;5053191;28;20021;-49
2022/03/12 01:37:26;;;;;;;21.05;12.02;;;;;;;9.65;59.88;101301.66;5051929;28;20078;-52
2022/03/12 01:39:51;;;;;;;26.10;12.90;;;;;;;9.64;58.39;101300.81;5070860;28;20062;-53
2022/03/12 01:42:19;;;;;;;24.55;13.05;;;;;;;9.62;59.99;101304.59;5054974;28;20028;-52
2022/03/12 01:44:45;;;;;;;27.20;12.63;;;;;;;9.61;60.62;101306.44;5054049;28;20013;-52
2022/03/12 01:47:11;;;;;;;26.10;13.50;;;;;;;9.57;62.96;101305.03;5068896;28;20020;-51
2022/03/12 01:49:37;;;;;;;27.67;13.65;;;;;;;9.54;62.22;101310.66;5068707;28;20295;-51
2022/03/12 01:52:04;;;;;;;25.80;13.20;;;;;;;9.49;62.92;101308.41;5055191;28;20361;-52
2022/03/12 01:54:30;;;;;;;25.40;14.32;;;;;;;9.48;63.44;101321.88;5054222;28;20048;-53
2022/03/12 01:56:58;;;;;;;24.63;13.80;;;;;;;9.42;64.71;101325.97;5055291;28;20459;-52
2022/03/12 01:59:24;;;;;;;27.05;13.88;;;;;;;9.35;67.18;101330.16;5073030;28;20051;-51
2022/03/12 02:01:52;;;;;;;22.88;13.50;;;;;;;9.32;67.75;101312.66;5074227;28;20292;-51
2022/03/12 02:04:18;;;;;;;24.88;13.65;;;;;;;9.27;71.22;101312.22;5074621;28;20032;-53
2022/03/12 02:06:46;;;;;;;22.88;13.65;;;;;;;9.21;70.14;101314.63;5075454;28;20031;-51
2022/03/12 02:09:14;;;;;;;26.52;14.18;;;;;;;9.21;71.25;101317.28;5068695;28;20396;-51
2022/03/12 02:11:40;;;;;;;24.50;13.27;;;;;;;9.19;71.78;101312.09;5074090;28;20227;-52
2022/03/12 02:14:13;;;;;;;25.40;13.93;;;;;;;9.16;69.92;101309.69;5056106;28;20449;-50
2022/03/12 02:16:49;;;;;;;24.63;13.90;;;;;;;9.18;71.32;101309.56;5052656;28;20090;-52
2022/03/12 02:19:17;;;;;;;26.63;13.63;;;;;;;9.17;71.39;101307.91;5064241;28;20405;-52
2022/03/12 02:21:56;;;;;;;26.00;13.98;;;;;;;9.13;69.21;101310.84;5058232;28;20341;-52
2022/03/12 02:24:24;;;;;;;27.10;13.85;;;;;;;9.13;70.16;101316.16;5070931;28;20373;-53
2022/03/12 02:26:51;;;;;;;21.70;13.20;;;;;;;9.12;70.90;101314.47;5071218;28;20067;-50
2022/03/12 02:29:21;;;;;;;24.52;14.32;;;;;;;9.14;69.29;101322.31;5052155;28;20490;-51
2022/03/12 02:32:13;;;;;;;26.20;13.52;;;;;;;9.15;69.72;101308.88;5061429;28;20113;-52
2022/03/12 02:34:43;;;;;;;24.77;14.63;;;;;;;9.11;68.84;101312.81;5066905;28;20028;-50
2022/03/12 02:37:10;;;;;;;25.95;13.77;;;;;;;9.12;70.16;101306.47;5064206;28;20041;-52
2022/03/12 02:39:38;;;;;;;26.77;13.40;;;;;;;9.13;68.74;101307.31;5050344;28;20069;-49
2022/03/12 02:42:07;;;;;;;30.65;13.13;;;;;;;9.12;70.60;101314.47;5033464;28;20025;-52
2022/03/12 02:44:33;;;;;;;35.38;13.98;;;;;;;9.12;70.31;101317.13;5039222;28;20017;-51
2022/03/12 02:47:11;;;;;;;25.63;13.95;;;;;;;9.12;69.91;101326.97;5033152;28;20537;-52
2022/03/12 02:49:39;;;;;;;26.85;14.10;;;;;;;9.08;68.75;101330.88;5038593;28;20119;-52
2022/03/12 02:52:05;;;;;;;25.38;13.57;;;;;;;9.08;69.21;101325.53;5047721;28;20105;-51
2022/03/12 02:54:31;;;;;;;25.85;14.65;;;;;;;9.06;68.69;101325.72;5049304;28;20448;-52
2022/03/12 02:56:56;;;;;;;25.17;14.45;;;;;;;9.03;68.11;101325.13;5035969;28;20114;-52
2022/03/12 02:59:21;;;;;;;26.10;13.50;;;;;;;9.01;68.23;101330.59;5042692;28;20261;-53
2022/03/12 03:01:47;;;;;;;28.63;14.80;;;;;;;9.03;67.93;101341.09;5033717;28;20021;-53
2022/03/12 03:04:12;;;;;;;26.83;14.00;;;;;;;9.01;68.98;101335.91;5033474;28;20043;-49
2022/03/12 03:06:38;;;;;;;24.40;13.82;;;;;;;8.94;68.68;101335.66;5032521;28;20024;-52
2022/03/12 03:09:04;;;;;;;25.90;13.73;;;;;;;8.99;69.57;101342.38;5033131;28;20151;-52
2022/03/12 03:11:37;;;;;;;25.95;13.88;;;;;;;8.96;68.36;101347.00;5034287;28;20028;-53
2022/03/12 03:14:04;;;;;;;38.72;14.65;;;;;;;8.94;68.12;101334.78;5038105;28;20028;-52
2022/03/12 03:16:31;;;;;;;26.27;13.50;;;;;;;8.91;68.63;101337.72;5045810;28;21115;-52
2022/03/12 03:18:57;;;;;;;24.60;13.05;;;;;;;8.82;69.08;101335.91;5035855;28;20085;-53
2022/03/12 03:21:24;;;;;;;25.02;13.38;;;;;;;8.73;68.58;101342.91;5034608;28;20283;-51
2022/03/12 03:23:50;;;;;;;24.35;13.63;;;;;;;8.66;69.54;101355.06;5040652;28;20051;-52
2022/03/12 03:26:34;;;;;;;22.05;12.95;;;;;;;8.56;70.08;101355.88;5039604;28;20468;-52
2022/03/12 03:29:00;;;;;;;30.83;14.35;;;;;;;8.50;70.13;101348.44;5051866;28;20766;-52
2022/03/12 03:31:25;;;;;;;25.85;13.52;;;;;;;8.45;70.19;101350.63;5052902;28;20024;-51
2022/03/12 03:33:50;;;;;;;25.77;13.57;;;;;;;8.40;70.63;101350.16;5052564;28;20040;-51
2022/03/12 03:36:16;;;;;;;27.02;12.85;;;;;;;8.38;72.41;101353.00;5052325;28;20043;-52
2022/03/12 03:38:41;;;;;;;24.02;13.70;;;;;;;8.31;71.98;101346.50;5049880;28;20033;-52
2022/03/12 03:41:06;;;;;;;26.65;13.10;;;;;;;8.29;72.95;101363.59;5049211;28;20492;-51
2022/03/12 03:43:31;;;;;;;26.17;13.48;;;;;;;8.25;72.16;101363.03;5046746;28;20041;-52
2022/03/12 03:45:57;;;;;;;27.83;13.77;;;;;;;8.21;73.12;101365.09;5033970;28;20080;-53
2022/03/12 03:48:23;;;;;;;26.20;13.18;;;;;;;8.18;73.39;101361.84;5053330;28;20558;-52
2022/03/12 03:50:49;;;;;;;22.02;13.40;;;;;;;8.17;73.63;101370.81;5052969;28;20028;-52
2022/03/12 03:53:24;;;;;;;24.85;13.30;;;;;;;8.11;74.31;101364.22;5050316;28;20024;-53
2022/03/12 03:55:51;;;;;;;22.60;13.27;;;;;;;8.15;74.82;101378.94;5048950;28;20120;-51
2022/03/12 03:58:17;;;;;;;26.38;13.35;;;;;;;8.13;74.78;101378.22;5041625;28;20037;-53
2022/03/12 04:00:57;;;;;;;24.85;13.85;;;;;;;8.14;74.92;101381.72;5036097;28;20382;-51
2022/03/12 04:03:24;;;;;;;25.10;12.68;;;;;;;8.09;75.90;101379.44;5051389;28;20482;-52
2022/03/12 04:05:49;;;;;;;27.27;13.50;;;;;;;8.08;76.53;101393.75;5041725;28;20455;-51
2022/03/12 04:08:14;;;;;;;29.65;13.75;;;;;;;8.05;75.94;101385.19;5056790;28;20127;-53
2022/03/12 04:10:40;;;;;;;25.63;13.18;;;;;;;8.02;76.98;101394.25;5056089;28;20385;-53
2022/03/12 04:13:18;;;;;;;26.48;13.05;;;;;;;7.98;77.19;101390.19;5055753;28;20020;-50
2022/03/12 04:15:43;;;;;;;23.25;12.30;;;;;;;7.92;78.53;101391.53;5055514;28;20101;-52
2022/03/12 04:18:10;;;;;;;28.05;13.20;;;;;;;7.91;79.62;101396.97;5050682;28;20056;-51
2022/03/12 04:20:36;;;;;;;22.90;12.40;;;;;;;7.88;79.69;101398.09;5029723;28;20033;-50
2022/03/12 04:23:02;;;;;;;20.50;12.77;;;;;;;7.86;81.09;101402.69;5038462;28;20035;-53
2022/03/12 04:25:31;;;;;;;25.48;12.95;;;;;;;7.80;81.50;101398.72;5050335;28;20044;-51
2022/03/12 04:28:00;;;;;;;21.40;12.52;;;;;;;7.75;82.65;101403.59;5048968;28;20037;-52
2022/03/12 04:30:26;;;;;;;20.15;11.88;;;;;;;7.71;83.63;101402.16;5051507;28;20345;-50
2022/03/12 04:32:51;;;;;;;24.30;11.73;;;;;;;7.68;85.02;101410.41;5050446;28;20511;-52
2022/03/12 04:35:18;;;;;;;23.83;12.57;;;;;;;7.65;85.61;101406.19;5055778;28;20095;-53
2022/03/12 04:37:43;;;;;;;24.88;12.05;;;;;;;7.64;86.38;101406.31;5056605;28;20517;-52
2022/03/12 04:40:12;;;;;;;24.40;12.18;;;;;;;7.62;86.88;101403.78;5037812;28;20017;-52
2022/03/12 04:42:42;;;;;;;19.05;11.27;;;;;;;7.65;86.69;101406.19;5051887;28;20087;-52
2022/03/12 04:45:10;;;;;;;21.58;12.25;;;;;;;7.62;87.35;101395.81;5053607;28;20131;-53
2022/03/12 04:47:35;;;;;;;25.67;11.90;;;;;;;7.60;87.93;101396.91;5036113;28;20021;-53
2022/03/12 04:50:02;;;;;;;21.77;11.77;;;;;;;7.60;88.75;101399.56;5036226;28;20032;-52
2022/03/12 04:52:29;;;;;;;20.80;11.45;;;;;;;7.58;89.13;101405.00;5036031;28;20025;-52
2022/03/12 04:54:54;;;;;;;22.35;11.93;;;;;;;7.58;89.12;101401.50;5053423;28;20032;-53
2022/03/12 04:57:19;;;;;;;22.90;11.70;;;;;;;7.59;90.24;101401.38;5055671;28;20562;-53
2022/03/12 04:59:45;;;;;;;24.92;11.70;;;;;;;7.56;90.04;101403.47;5054775;28;20117;-52
2022/03/12 05:02:12;;;;;;;20.00;11.73;;;;;;;7.52;90.56;101410.84;5043701;28;20032;-52
2022/03/12 05:04:37;;;;;;;22.77;12.35;;;;;;;7.47;91.37;101408.56;5040839;28;20526;-51
2022/03/12 05:07:12;;;;;;;19.83;11.10;;;;;;;7.48;92.59;101414.72;5035963;28;20029;-53
2022/03/12 05:09:37;;;;;;;21.52;11.55;;;;;;;7.49;93.75;101413.75;5034674;28;20506;-53
2022/03/12 05:12:05;;;;;;;27.48;11.73;;;;;;;7.47;95.31;101419.19;5035730;28;20033;-53
2022/03/12 05:14:36;;;;;;;19.88;10.98;;;;;;;7.49;95.78;101418.22;5040814;28;20192;-52
2022/03/12 05:17:05;;;;;;;17.88;10.68;;;;;;;7.49;96.19;101420.88;5054913;28;20084;-52
2022/03/12 05:19:30;;;;;;;17.25;10.68;;;;;;;7.47;96.39;101421.84;5055078;28;20325;-52
2022/03/12 05:21:55;;;;;;;17.30;10.60;;;;;;;7.44;96.21;101422.09;5046800;28;20325;-51
2022/03/12 05:24:21;;;;;;;18.77;10.52;;;;;;;7.43;97.00;101422.22;5051746;28;20393;-53
2022/03/12 05:26:46;;;;;;;19.75;10.75;;;;;;;7.41;97.25;101430.31;5035973;28;20106;-51
2022/03/12 05:29:11;;;;;;;17.70;10.60;;;;;;;7.39;98.07;101431.44;5042460;28;20124;-51
2022/03/12 05:31:37;;;;;;;21.35;11.43;;;;;;;7.39;98.59;101432.25;5051335;28;20506;-52
2022/03/12 05:34:02;;;;;;;16.58;10.45;;;;;;;7.39;98.67;101442.88;5047508;28;20087;-52
2022/03/12 05:36:27;;;;;;;19.23;10.55;;;;;;;7.39;99.55;101440.22;5044486;28;20056;-53
2022/03/12 05:38:53;;;;;;;17.27;10.27;;;;;;;7.37;99.43;101450.16;5055869;28;20336;-52
2022/03/12 05:41:18;;;;;;;17.90;12.02;;;;;;;7.36;99.92;101448.44;5055446;28;20107;-52
2022/03/12 05:43:46;;;;;;;19.10;10.65;;;;;;;7.36;100.00;101453.75;5054022;28;20101;-52
2022/03/12 05:46:16;;;;;;;17.05;10.52;;;;;;;7.34;100.00;101450.41;5048064;28;20509;-51
2022/03/12 05:48:42;;;;;;;18.60;11.20;;;;;;;7.28;100.00;101459.72;5034794;28;20086;-52
2022/03/12 05:51:11;;;;;;;18.23;10.77;;;;;;;7.29;100.00;101463.22;5034294;28;20032;-52
2022/03/12 05:53:37;;;;;;;25.13;11.55;;;;;;;7.27;100.00;101467.81;5038743;28;20105;-50
2022/03/12 05:56:04;;;;;;;18.88;10.85;;;;;;;7.26;100.00;101466.09;5034880;28;20061;-51
2022/03/12 05:58:35;;;;;;;17.63;10.82;;;;;;;7.21;100.00;101462.97;5046452;28;20076;-51
2022/03/12 06:01:00;;;;;;;20.98;11.75;;;;;;;7.18;100.00;101461.44;5055313;28;20438;-52
2022/03/12 06:03:26;;;;;;;21.38;11.63;;;;;;;7.19;100.00;101464.94;5041154;28;20459;-52
2022/03/12 06:05:56;;;;;;;20.70;11.60;;;;;;;7.17;100.00;101464.22;5044035;28;20135;-50
2022/03/12 06:08:22;;;;;;;18.42;10.88;;;;;;;7.13;100.00;101466.28;5046694;28;20024;-52
2022/03/12 06:10:52;;;;;;;19.55;11.02;;;;;;;7.13;100.00;101462.75;5041692;28;20036;-51
2022/03/12 06:13:21;;;;;;;21.80;11.73;;;;;;;7.11;100.00;101465.53;5053071;28;20028;-51
2022/03/12 06:15:49;;;;;;;20.65;11.73;;;;;;;7.10;100.00;101459.38;5049099;28;20029;-53
2022/03/12 06:18:15;;;;;;;19.45;11.55;;;;;;;7.09;100.00;101457.72;5034421;28;20025;-52
2022/03/12 06:20:42;;;;;;;19.55;11.40;;;;;;;7.08;100.00;101463.13;5034490;28;20036;-52
2022/03/12 06:23:07;;;;;;;19.42;11.50;;;;;;;7.07;100.00;101467.59;5033524;28;20020;-51
2022/03/12 06:25:34;;;;;;;21.98;11.35;;;;;;;7.07;100.00;101470.25;5022455;28;20331;-52
2022/03/12 06:28:01;;;;;;;21.88;11.98;;;;;;;7.06;100.00;101479.19;5046923;28;20412;-52
2022/03/12 06:30:28;;;;;;;27.13;12.13;;;;;;;7.11;100.00;101473.50;5035626;28;20024;-53
2022/03/12 06:32:55;;;;;;;21.27;10.57;;;;;;;7.15;100.00;101480.28;5042786;28;20308;-53
2022/03/12 06:35:21;;;;;;;20.48;11.93;;;;;;;7.19;100.00;101487.00;5040022;28;20083;-51
2022/03/12 06:37:46;;;;;;;23.15;12.35;;;;;;;7.20;100.00;101491.38;5046879;28;20080;-53
2022/03/12 06:40:14;;;;;;;19.52;11.52;;;;;;;7.23;100.00;101490.25;5053694;28;20447;-53
2022/03/12 06:42:41;;;;;;;24.15;11.52;;;;;;;7.26;100.00;101492.69;5053125;28;20120;-53
2022/03/12 06:45:08;;;;;;;20.63;11.98;;;;;;;7.29;100.00;101495.09;5053160;28;20144;-49
2022/03/12 06:47:35;;;;;;;20.67;12.30;;;;;;;7.31;100.00;101490.50;5034036;28;20095;-53
2022/03/12 06:50:01;;;;;;;20.63;11.15;;;;;;;7.32;100.00;101494.84;5020400;28;20052;-52
2022/03/12 06:52:28;;;;;;;22.30;11.77;;;;;;;7.36;100.00;101493.63;5041056;28;20305;-51
2022/03/12 06:54:55;;;;;;;22.73;11.98;;;;;;;7.37;100.00;101505.94;5039829;28;20021;-51
2022/03/12 06:57:20;;;;;;;20.77;11.73;;;;;;;7.41;100.00;101506.53;5034161;28;20044;-52
2022/03/12 06:59:46;;;;;;;21.85;12.50;;;;;;;7.45;100.00;101505.31;5045992;28;20419;-53
2022/03/12 07:02:12;;;;;;;20.55;11.90;;;;;;;7.49;100.00;101521.88;5029895;28;20017;-51
2022/03/12 07:04:38;;;;;;;19.02;11.52;;;;;;;7.51;100.00;101514.63;5047423;28;20024;-50
2022/03/12 07:07:03;;;;;;;18.83;11.35;;;;;;;7.56;100.00;101520.41;5053704;28;20021;-52
2022/03/12 07:09:29;;;;;;;21.33;11.68;;;;;;;7.61;100.00;101516.41;5049878;28;20058;-53
2022/03/12 07:11:58;;;;;;;21.23;10.93;;;;;;;7.65;100.00;101522.31;5041561;28;20112;-53
2022/03/12 07:14:25;;;;;;;19.33;11.65;;;;;;;7.71;100.00;101523.63;5041346;28;20053;-53
2022/03/12 07:16:51;;;;;;;21.25;11.63;;;;;;;7.75;100.00;101517.09;5044658;28;20575;-52
2022/03/12 07:19:16;;;;;;;21.30;11.68;;;;;;;7.80;100.00;101522.88;5052846;28;20044;-50
2022/03/12 07:21:41;;;;;;;25.70;11.90;;;;;;;7.81;100.00;101517.44;5052903;28;20027;-50
2022/03/12 07:24:07;;;;;;;18.00;11.13;;;;;;;7.86;100.00;101525.03;5053287;28;20023;-53
2022/03/12 07:26:32;;;;;;;20.90;11.02;;;;;;;7.90;100.00;101526.47;5054080;28;20056;-52
2022/03/12 07:28:59;;;;;;;17.60;10.50;;;;;;;7.95;100.00;101529.56;5052314;28;20371;-53
2022/03/12 07:31:25;;;;;;;18.65;10.57;;;;;;;8.00;100.00;101534.53;5052771;28;20024;-53
2022/03/12 07:33:50;;;;;;;17.33;10.35;;;;;;;8.05;100.00;101534.16;5040296;28;20455;-52
2022/03/12 07:36:16;;;;;;;16.50;11.07;;;;;;;8.08;100.00;101533.88;5033131;28;20036;-54
2022/03/12 07:38:41;;;;;;;19.02;10.30;;;;;;;8.16;100.00;101545.59;5033150;28;20915;-52
2022/03/12 07:41:07;;;;;;;18.50;10.18;;;;;;;8.25;100.00;101548.44;5046544;28;20097;-51
2022/03/12 07:43:32;;;;;;;16.52;10.27;;;;;;;8.36;100.00;101559.84;5045745;28;20387;-52
2022/03/12 07:45:58;;;;;;;17.50;10.38;;;;;;;8.48;100.00;101557.19;5052981;28;20186;-51
2022/03/12 07:48:23;;;;;;;15.35;9.90;;;;;;;8.55;100.00;101559.22;5050630;28;20028;-52
2022/03/12 07:50:49;;;;;;;19.42;10.95;;;;;;;8.56;100.00;101566.19;5052902;28;20024;-51
2022/03/12 07:53:14;;;;;;;18.67;10.57;;;;;;;8.63;100.00;101563.88;5051605;28;20017;-51
2022/03/12 07:55:40;;;;;;;16.10;9.80;;;;;;;8.76;100.00;101574.31;5040951;28;20073;-49
2022/03/12 07:58:06;;;;;;;15.50;9.65;;;;;;;8.88;100.00;101573.25;5052279;28;20342;-49
2022/03/12 08:00:31;;;;;;;16.15;9.48;;;;;;;8.98;100.00;101569.78;5039557;28;20044;-52
2022/03/12 08:02:57;;;;;;;14.80;9.30;;;;;;;9.11;100.00;101570.41;5033467;28;20239;-52
2022/03/12 08:05:25;;;;;;;14.55;8.90;;;;;;;9.22;100.00;101573.00;5037211;28;20021;-50
2022/03/12 08:07:54;;;;;;;17.90;10.40;;;;;;;9.25;100.00;101580.72;5045376;28;20059;-52
2022/03/12 08:10:20;;;;;;;14.00;9.38;;;;;;;9.25;100.00;101583.41;5048888;28;20025;-52
2022/03/12 08:12:46;;;;;;;16.20;8.25;;;;;;;9.27;100.00;101589.44;5033076;28;20070;-53
2022/03/12 08:15:12;;;;;;;13.80;9.40;;;;;;;9.34;100.00;101589.75;5037777;28;20032;-51
2022/03/12 08:17:38;;;;;;;13.60;9.07;;;;;;;9.40;100.00;101578.53;5022429;28;20028;-52
2022/03/12 08:20:08;;;;;;;14.73;9.45;;;;;;;9.44;100.00;101587.94;5052683;28;20107;-52
2022/03/12 08:22:35;;;;;;;15.13;8.75;;;;;;;9.57;100.00;101592.19;5037014;28;20044;-51
2022/03/12 08:25:01;;;;;;;14.25;8.63;;;;;;;9.66;100.00;101589.56;5041755;28;20065;-50
2022/03/12 08:27:26;;;;;;;14.43;8.90;;;;;;;9.76;100.00;101592.25;5035239;28;20055;-52
2022/03/12 08:29:51;;;;;;;13.50;8.88;;;;;;;9.85;100.00;101595.91;5051732;28;20054;-52
2022/03/12 08:32:16;;;;;;;14.32;9.18;;;;;;;9.96;100.00;101606.47;5033982;28;20463;-52
2022/03/12 08:34:42;;;;;;;14.10;8.40;;;;;;;10.04;100.00;101617.28;5048445;28;20557;-50
2022/03/12 08:37:08;;;;;;;13.23;8.18;;;;;;;10.10;100.00;101613.22;5051452;28;20048;-52
2022/03/12 08:39:34;;;;;;;12.05;8.02;;;;;;;10.18;100.00;101609.84;5044053;28;20102;-50
2022/03/12 08:41:59;;;;;;;15.82;8.10;;;;;;;10.26;100.00;101610.81;5026879;28;20552;-50
2022/03/12 08:44:25;;;;;;;16.25;7.80;;;;;;;10.37;99.74;101617.03;5032204;28;20028;-53
2022/03/12 08:46:51;;;;;;;13.18;6.82;;;;;;;10.42;99.12;101615.66;5046377;28;20064;-53
2022/03/12 08:49:16;;;;;;;15.30;7.63;;;;;;;10.57;98.84;101610.72;5044703;28;20668;-54
2022/03/12 08:51:42;;;;;;;13.27;7.50;;;;;;;10.66;98.21;101613.50;5040062;28;20451;-53
2022/03/12 08:54:08;;;;;;;11.25;7.13;;;;;;;10.72;97.14;101618.28;5041142;28;20029;-53
2022/03/12 08:56:34;;;;;;;13.52;7.22;;;;;;;10.67;97.42;101613.38;5040911;28;20641;-53
2022/03/12 08:59:00;;;;;;;15.90;7.43;;;;;;;10.77;97.54;101614.19;5035497;28;20354;-52
2022/03/12 09:01:25;;;;;;;9.90;6.63;;;;;;;10.88;96.46;101629.25;5040611;28;20041;-51
2022/03/12 09:03:52;;;;;;;13.63;6.55;;;;;;;10.86;95.98;101630.34;5053610;28;20068;-52
2022/03/12 09:06:18;;;;;;;13.95;6.80;;;;;;;10.90;96.54;101621.91;5054103;28;20061;-52
2022/03/12 09:08:47;;;;;;;13.30;7.15;;;;;;;10.98;95.91;101629.19;5055252;28;20032;-53
2022/03/12 09:11:16;;;;;;;15.55;7.07;;;;;;;11.01;95.88;101632.44;5054050;28;20443;-53
2022/03/12 09:13:41;;;;;;;14.32;6.25;;;;;;;11.10;95.43;101624.53;5046719;28;20069;-51
2022/03/12 09:16:06;;;;;;;16.13;6.40;;;;;;;11.06;95.02;101637.34;5038275;28;20367;-54
2022/03/12 09:18:32;;;;;;;11.65;6.63;;;;;;;11.13;94.58;101638.47;5046662;28;20029;-53
2022/03/12 09:20:57;;;;;;;11.23;6.95;;;;;;;11.14;94.13;101639.31;5044303;28;20017;-51
2022/03/12 09:23:23;;;;;;;10.00;6.82;;;;;;;11.15;93.97;101640.97;5044381;28;20025;-53
2022/03/12 09:25:49;;;;;;;10.50;6.25;;;;;;;11.24;94.03;101641.97;5044940;28;20372;-51
2022/03/12 09:28:16;;;;;;;13.82;6.80;;;;;;;11.28;93.73;101632.63;5048945;28;20589;-52
2022/03/12 09:30:42;;;;;;;14.07;6.15;;;;;;;11.37;92.93;101626.41;5054251;28;20024;-52
2022/03/12 09:33:08;;;;;;;10.10;5.30;;;;;;;11.42;90.53;101628.63;5054391;28;20020;-52
2022/03/12 09:35:34;;;;;;;13.07;5.25;;;;;;;11.38;90.26;101646.81;5054541;28;20028;-53
2022/03/12 09:38:01;;;;;;;12.10;5.20;;;;;;;11.39;89.41;101629.78;5054743;28;20179;-51
2022/03/12 09:40:27;;;;;;;12.00;4.85;;;;;;;11.53;88.66;101634.63;5051045;28;20021;-53
2022/03/12 09:42:53;;;;;;;10.45;4.70;;;;;;;11.61;88.16;101633.91;5044432;28;20036;-53
2022/03/12 09:45:21;;;;;;;10.98;4.20;;;;;;;11.82;87.84;101632.81;5046422;28;20506;-52
2022/03/12 09:47:46;;;;;;;7.85;4.05;;;;;;;12.03;84.64;101632.56;5051122;28;20021;-54
2022/03/12 09:50:12;;;;;;;11.20;4.07;;;;;;;12.16;83.85;101633.03;5052088;28;20064;-52
2022/03/12 09:52:37;;;;;;;10.80;4.50;;;;;;;12.19;83.05;101631.91;5044347;28;20021;-51
2022/03/12 09:55:04;;;;;;;9.35;4.18;;;;;;;12.28;82.94;101631.81;5048022;28;20067;-51
2022/03/12 09:57:29;;;;;;;8.77;4.22;;;;;;;12.35;82.27;101634.72;5052542;28;20047;-53
2022/03/12 09:59:56;;;;;;;14.98;3.90;;;;;;;12.33;81.01;101634.03;5054353;28;20021;-52
2022/03/12 10:02:21;;;;;;;11.15;4.30;;;;;;;12.39;81.73;101637.94;5046782;28;20214;-53
2022/03/12 10:04:46;;;;;;;8.95;3.65;;;;;;;12.40;79.24;101656.53;5052843;28;20741;-53
2022/03/12 10:07:12;;;;;;;8.40;3.50;;;;;;;12.25;77.83;101666.09;5050877;28;20085;-52
2022/03/12 10:09:37;;;;;;;7.82;2.65;;;;;;;12.06;78.85;101645.66;5052954;28;20055;-51
2022/03/12 10:12:04;;;;;;;10.55;5.57;;;;;;;11.84;78.71;101660.25;5053757;28;20343;-53
2022/03/12 10:14:30;;;;;;;18.00;6.38;;;;;;;11.85;79.36;101652.09;5043879;28;20132;-53
2022/03/12 10:16:55;;;;;;;9.75;3.85;;;;;;;11.95;79.88;101662.78;5049227;28;20426;-52
2022/03/12 10:19:20;;;;;;;14.10;5.30;;;;;;;11.86;78.89;101658.28;5053475;28;20028;-51
2022/03/12 10:21:47;;;;;;;10.98;3.88;;;;;;;11.91;79.51;101667.59;5053642;28;20028;-53
2022/03/12 10:24:13;;;;;;;12.40;3.45;;;;;;;12.01;80.05;101661.31;5048667;28;20565;-53
2022/03/12 10:26:39;;;;;;;9.27;3.40;;;;;;;11.92;80.12;101668.44;5050426;28;20185;-51
2022/03/12 10:29:05;;;;;;;9.15;3.38;;;;;;;11.89;80.18;101652.63;5052629;28;20028;-53
2022/03/12 10:31:31;;;;;;;9.95;3.17;;;;;;;11.94;80.86;101656.56;5053587;28;20727;-51
2022/03/12 10:34:18;;;;;;;9.82;3.47;;;;;;;12.09;80.24;101651.53;5054497;28;20029;-52
2022/03/12 10:36:44;;;;;;;8.75;3.30;;;;;;;12.33;78.85;101655.47;5042542;28;20446;-53
2022/03/12 10:39:10;;;;;;;10.30;3.40;;;;;;;12.44;77.14;101652.56;5033453;28;20037;-53
2022/03/12 10:41:37;;;;;;;8.05;3.13;;;;;;;12.37;76.82;101661.34;5030993;28;20761;-53
2022/03/12 10:44:04;;;;;;;11.88;3.78;;;;;;;12.40;76.43;101674.44;5032958;28;20382;-52
2022/03/12 10:46:30;;;;;;;7.82;3.17;;;;;;;12.49;76.46;101665.47;5042128;28;20087;-52
2022/03/12 10:48:58;;;;;;;14.10;4.70;;;;;;;12.57;75.43;101668.25;5046358;28;20443;-53
2022/03/12 10:51:26;;;;;;;10.80;3.58;;;;;;;12.76;75.75;101669.91;5051903;28;20027;-52
2022/03/12 10:53:59;;;;;;;7.75;3.22;;;;;;;12.82;74.62;101663.09;5052903;28;20479;-53
2022/03/12 10:56:49;;;;;;;11.07;3.40;;;;;;;12.82;74.79;101668.47;5029567;28;20503;-53
2022/03/12 10:59:21;;;;;;;10.90;3.30;;;;;;;12.81;73.64;101662.25;5042872;28;20429;-52
2022/03/12 11:01:53;;;;;;;12.75;3.50;;;;;;;12.93;72.83;101659.31;5053378;28;20305;-51
2022/03/12 11:04:23;;;;;;;12.40;2.95;;;;;;;13.23;72.05;101653.47;5052546;28;20453;-53
2022/03/12 11:06:51;;;;;;;9.27;2.85;;;;;;;13.46;70.52;101671.75;5052596;28;20035;-52
2022/03/12 11:09:18;;;;;;;8.93;2.55;;;;;;;13.55;69.08;101660.06;5046010;28;20161;-50
2022/03/12 11:11:47;;;;;;;11.52;3.10;;;;;;;13.55;68.37;101662.72;5034590;28;20025;-51
2022/03/12 11:14:22;;;;;;;6.97;2.55;;;;;;;13.61;69.60;101669.28;5038995;28;20508;-52
2022/03/12 11:16:52;;;;;;;7.63;2.83;;;;;;;13.78;68.51;101676.44;5051275;28;20028;-53